sensor_id;sensor_type;location;lat;lon;timestamp;P1;durP1;ratioP1;P2;durP2;ratioP2
1953;SDS011;977;42.704;23.354;2022-08-19T00:00:36;5.90;;;5.33;;
1953;SDS011;977;42.704;23.354;2022-08-19T00:03:02;10.60;;;5.93;;
1953;SDS011;977;42.704;23.354;2022-08-19T00:05:31;5.77;;;5.17;;
1953;SDS011;977;42.704;23.354;2022-08-19T00:07:57;7.53;;;5.70;;
1953;SDS011;977;42.704;23.354;2022-08-19T00:10:23;7.10;;;5.50;;
1953;SDS011;977;42.704;23.354;2022-08-19T00:12:49;6.80;;;6.20;;
1953;SDS011;977;42.704;23.354;2022-08-19T00:15:16;6.97;;;5.77;;
1953;SDS011;977;42.704;23.354;2022-08-19T00:17:44;4.47;;;4.03;;
1953;SDS011;977;42.704;23.354;2022-08-19T00:20:11;4.47;;;4.13;;
1953;SDS011;977;42.704;23.354;2022-08-19T00:22:41;6.60;;;4.60;;
1953;SDS011;977;42.704;23.354;2022-08-19T00:25:08;3.90;;;3.60;;
1953;SDS011;977;42.704;23.354;2022-08-19T00:27:34;4.53;;;4.13;;
1953;SDS011;977;42.704;23.354;2022-08-19T00:29:59;5.97;;;3.30;;
1953;SDS011;977;42.704;23.354;2022-08-19T00:32:27;4.33;;;3.03;;
1953;SDS011;977;42.704;23.354;2022-08-19T00:34:53;3.37;;;3.07;;
1953;SDS011;977;42.704;23.354;2022-08-19T00:37:19;3.70;;;3.40;;
1953;SDS011;977;42.704;23.354;2022-08-19T00:39:48;3.87;;;3.20;;
1953;SDS011;977;42.704;23.354;2022-08-19T00:42:13;6.03;;;3.87;;
1953;SDS011;977;42.704;23.354;2022-08-19T00:44:40;5.80;;;3.37;;
1953;SDS011;977;42.704;23.354;2022-08-19T00:47:06;3.37;;;3.07;;
1953;SDS011;977;42.704;23.354;2022-08-19T00:49:34;4.83;;;3.20;;
1953;SDS011;977;42.704;23.354;2022-08-19T00:52:04;5.30;;;3.50;;
1953;SDS011;977;42.704;23.354;2022-08-19T00:54:33;4.50;;;3.80;;
1953;SDS011;977;42.704;23.354;2022-08-19T00:57:02;2.70;;;2.50;;
1953;SDS011;977;42.704;23.354;2022-08-19T00:59:31;4.70;;;3.80;;
1953;SDS011;977;42.704;23.354;2022-08-19T01:01:58;3.90;;;3.00;;
1953;SDS011;977;42.704;23.354;2022-08-19T01:04:24;3.40;;;3.10;;
1953;SDS011;977;42.704;23.354;2022-08-19T01:06:49;4.30;;;3.53;;
1953;SDS011;977;42.704;23.354;2022-08-19T01:09:17;2.97;;;2.77;;
1953;SDS011;977;42.704;23.354;2022-08-19T01:11:43;3.50;;;3.27;;
1953;SDS011;977;42.704;23.354;2022-08-19T01:14:10;8.43;;;3.20;;
1953;SDS011;977;42.704;23.354;2022-08-19T01:16:37;3.20;;;3.00;;
1953;SDS011;977;42.704;23.354;2022-08-19T01:19:09;3.60;;;3.30;;
1953;SDS011;977;42.704;23.354;2022-08-19T01:21:45;4.80;;;3.23;;
1953;SDS011;977;42.704;23.354;2022-08-19T01:24:16;4.20;;;3.80;;
1953;SDS011;977;42.704;23.354;2022-08-19T01:26:42;3.60;;;3.30;;
1953;SDS011;977;42.704;23.354;2022-08-19T01:29:10;3.93;;;3.53;;
1953;SDS011;977;42.704;23.354;2022-08-19T01:31:35;5.20;;;4.70;;
1953;SDS011;977;42.704;23.354;2022-08-19T01:34:03;7.70;;;5.03;;
1953;SDS011;977;42.704;23.354;2022-08-19T01:36:31;4.30;;;3.90;;
1953;SDS011;977;42.704;23.354;2022-08-19T01:39:00;4.27;;;3.60;;
1953;SDS011;977;42.704;23.354;2022-08-19T01:41:27;5.20;;;4.50;;
1953;SDS011;977;42.704;23.354;2022-08-19T01:43:54;6.93;;;4.20;;
1953;SDS011;977;42.704;23.354;2022-08-19T01:46:21;5.60;;;5.10;;
1953;SDS011;977;42.704;23.354;2022-08-19T01:48:46;5.97;;;4.70;;
1953;SDS011;977;42.704;23.354;2022-08-19T01:51:12;4.23;;;3.70;;
1953;SDS011;977;42.704;23.354;2022-08-19T01:53:38;4.40;;;4.10;;
1953;SDS011;977;42.704;23.354;2022-08-19T01:56:05;5.37;;;4.47;;
1953;SDS011;977;42.704;23.354;2022-08-19T01:58:32;7.53;;;3.70;;
1953;SDS011;977;42.704;23.354;2022-08-19T02:01:02;5.00;;;4.50;;
1953;SDS011;977;42.704;23.354;2022-08-19T02:03:28;4.10;;;3.80;;
1953;SDS011;977;42.704;23.354;2022-08-19T02:05:58;3.63;;;3.33;;
1953;SDS011;977;42.704;23.354;2022-08-19T02:08:25;4.33;;;3.93;;
1953;SDS011;977;42.704;23.354;2022-08-19T02:10:52;4.57;;;4.00;;
1953;SDS011;977;42.704;23.354;2022-08-19T02:13:18;4.20;;;3.90;;
1953;SDS011;977;42.704;23.354;2022-08-19T02:15:44;5.00;;;4.30;;
1953;SDS011;977;42.704;23.354;2022-08-19T02:18:10;5.80;;;3.70;;
1953;SDS011;977;42.704;23.354;2022-08-19T02:20:36;4.80;;;4.27;;
1953;SDS011;977;42.704;23.354;2022-08-19T02:23:02;7.33;;;5.03;;
1953;SDS011;977;42.704;23.354;2022-08-19T02:25:28;5.77;;;4.40;;
1953;SDS011;977;42.704;23.354;2022-08-19T02:27:53;4.63;;;4.20;;
1953;SDS011;977;42.704;23.354;2022-08-19T02:30:19;14.43;;;4.93;;
1953;SDS011;977;42.704;23.354;2022-08-19T02:32:46;4.80;;;4.30;;
1953;SDS011;977;42.704;23.354;2022-08-19T02:35:13;4.47;;;4.07;;
1953;SDS011;977;42.704;23.354;2022-08-19T02:37:39;4.90;;;3.93;;
1953;SDS011;977;42.704;23.354;2022-08-19T02:40:24;4.57;;;4.27;;
1953;SDS011;977;42.704;23.354;2022-08-19T02:42:49;5.40;;;4.90;;
1953;SDS011;977;42.704;23.354;2022-08-19T02:45:15;7.37;;;4.50;;
1953;SDS011;977;42.704;23.354;2022-08-19T02:47:41;4.40;;;4.10;;
1953;SDS011;977;42.704;23.354;2022-08-19T02:50:07;5.37;;;4.87;;
1953;SDS011;977;42.704;23.354;2022-08-19T02:52:34;7.60;;;4.60;;
1953;SDS011;977;42.704;23.354;2022-08-19T02:55:00;5.27;;;4.77;;
1953;SDS011;977;42.704;23.354;2022-08-19T02:57:26;9.03;;;5.50;;
1953;SDS011;977;42.704;23.354;2022-08-19T02:59:52;6.83;;;4.63;;
1953;SDS011;977;42.704;23.354;2022-08-19T03:02:18;4.40;;;4.10;;
1953;SDS011;977;42.704;23.354;2022-08-19T03:04:44;4.37;;;3.97;;
1953;SDS011;977;42.704;23.354;2022-08-19T03:07:09;8.70;;;5.00;;
1953;SDS011;977;42.704;23.354;2022-08-19T03:09:39;8.27;;;5.00;;
1953;SDS011;977;42.704;23.354;2022-08-19T03:12:05;5.90;;;5.03;;
1953;SDS011;977;42.704;23.354;2022-08-19T03:14:31;5.50;;;5.00;;
1953;SDS011;977;42.704;23.354;2022-08-19T03:16:57;13.83;;;5.70;;
1953;SDS011;977;42.704;23.354;2022-08-19T03:19:23;6.73;;;4.63;;
1953;SDS011;977;42.704;23.354;2022-08-19T03:21:49;7.50;;;4.80;;
1953;SDS011;977;42.704;23.354;2022-08-19T03:24:16;5.53;;;4.80;;
1953;SDS011;977;42.704;23.354;2022-08-19T03:26:43;5.17;;;4.17;;
1953;SDS011;977;42.704;23.354;2022-08-19T03:29:11;4.40;;;4.00;;
1953;SDS011;977;42.704;23.354;2022-08-19T03:31:38;7.03;;;5.33;;
1953;SDS011;977;42.704;23.354;2022-08-19T03:34:04;6.10;;;4.80;;
1953;SDS011;977;42.704;23.354;2022-08-19T03:36:30;5.77;;;3.90;;
1953;SDS011;977;42.704;23.354;2022-08-19T03:38:57;10.37;;;5.80;;
1953;SDS011;977;42.704;23.354;2022-08-19T03:41:25;4.90;;;4.50;;
1953;SDS011;977;42.704;23.354;2022-08-19T03:43:53;6.43;;;5.07;;
1953;SDS011;977;42.704;23.354;2022-08-19T03:46:22;12.43;;;6.80;;
1953;SDS011;977;42.704;23.354;2022-08-19T03:48:51;6.43;;;5.40;;
1953;SDS011;977;42.704;23.354;2022-08-19T03:51:38;5.80;;;4.80;;
1953;SDS011;977;42.704;23.354;2022-08-19T03:54:07;5.40;;;4.90;;
1953;SDS011;977;42.704;23.354;2022-08-19T03:56:37;4.80;;;4.50;;
1953;SDS011;977;42.704;23.354;2022-08-19T03:59:06;5.10;;;4.70;;
1953;SDS011;977;42.704;23.354;2022-08-19T04:01:34;10.40;;;5.10;;
1953;SDS011;977;42.704;23.354;2022-08-19T04:04:00;7.07;;;6.37;;
1953;SDS011;977;42.704;23.354;2022-08-19T04:06:27;7.33;;;5.00;;
1953;SDS011;977;42.704;23.354;2022-08-19T04:08:55;6.20;;;5.60;;
1953;SDS011;977;42.704;23.354;2022-08-19T04:11:24;5.10;;;4.60;;
1953;SDS011;977;42.704;23.354;2022-08-19T04:13:51;10.60;;;4.90;;
1953;SDS011;977;42.704;23.354;2022-08-19T04:16:18;6.77;;;6.13;;
1953;SDS011;977;42.704;23.354;2022-08-19T04:18:45;6.20;;;5.60;;
1953;SDS011;977;42.704;23.354;2022-08-19T04:21:19;6.10;;;5.37;;
1953;SDS011;977;42.704;23.354;2022-08-19T04:23:46;5.53;;;5.00;;
1953;SDS011;977;42.704;23.354;2022-08-19T04:26:20;6.13;;;5.43;;
1953;SDS011;977;42.704;23.354;2022-08-19T04:28:48;5.67;;;5.13;;
1953;SDS011;977;42.704;23.354;2022-08-19T04:31:18;5.53;;;4.87;;
1953;SDS011;977;42.704;23.354;2022-08-19T04:33:46;7.50;;;6.43;;
1953;SDS011;977;42.704;23.354;2022-08-19T04:36:16;5.10;;;4.60;;
1953;SDS011;977;42.704;23.354;2022-08-19T04:38:49;8.40;;;5.73;;
1953;SDS011;977;42.704;23.354;2022-08-19T04:41:17;6.53;;;5.57;;
1953;SDS011;977;42.704;23.354;2022-08-19T04:44:01;5.17;;;4.67;;
1953;SDS011;977;42.704;23.354;2022-08-19T04:46:28;7.53;;;6.73;;
1953;SDS011;977;42.704;23.354;2022-08-19T04:48:56;9.40;;;6.60;;
1953;SDS011;977;42.704;23.354;2022-08-19T04:51:22;5.10;;;4.53;;
1953;SDS011;977;42.704;23.354;2022-08-19T04:53:49;6.83;;;5.50;;
1953;SDS011;977;42.704;23.354;2022-08-19T04:56:17;6.97;;;5.47;;
1953;SDS011;977;42.704;23.354;2022-08-19T04:58:46;7.03;;;6.33;;
1953;SDS011;977;42.704;23.354;2022-08-19T05:01:19;9.60;;;5.80;;
1953;SDS011;977;42.704;23.354;2022-08-19T05:03:47;5.87;;;5.33;;
1953;SDS011;977;42.704;23.354;2022-08-19T05:06:14;4.60;;;4.20;;
1953;SDS011;977;42.704;23.354;2022-08-19T05:08:41;7.07;;;4.83;;
1953;SDS011;977;42.704;23.354;2022-08-19T05:11:12;8.80;;;5.23;;
1953;SDS011;977;42.704;23.354;2022-08-19T05:13:41;4.63;;;4.23;;
1953;SDS011;977;42.704;23.354;2022-08-19T05:16:09;5.27;;;4.87;;
1953;SDS011;977;42.704;23.354;2022-08-19T05:18:35;6.07;;;5.23;;
1953;SDS011;977;42.704;23.354;2022-08-19T05:21:20;6.87;;;6.10;;
1953;SDS011;977;42.704;23.354;2022-08-19T05:24:05;5.33;;;4.83;;
1953;SDS011;977;42.704;23.354;2022-08-19T05:26:35;6.00;;;4.40;;
1953;SDS011;977;42.704;23.354;2022-08-19T05:29:02;5.73;;;5.27;;
1953;SDS011;977;42.704;23.354;2022-08-19T05:31:28;5.47;;;4.97;;
1953;SDS011;977;42.704;23.354;2022-08-19T05:33:54;9.60;;;6.00;;
1953;SDS011;977;42.704;23.354;2022-08-19T05:36:20;5.63;;;5.10;;
1953;SDS011;977;42.704;23.354;2022-08-19T05:38:46;5.97;;;4.63;;
1953;SDS011;977;42.704;23.354;2022-08-19T05:41:13;6.13;;;4.70;;
1953;SDS011;977;42.704;23.354;2022-08-19T05:43:40;5.93;;;5.17;;
1953;SDS011;977;42.704;23.354;2022-08-19T05:46:06;5.87;;;5.33;;
1953;SDS011;977;42.704;23.354;2022-08-19T05:48:34;8.80;;;6.43;;
1953;SDS011;977;42.704;23.354;2022-08-19T05:51:07;5.80;;;5.17;;
1953;SDS011;977;42.704;23.354;2022-08-19T05:53:33;5.07;;;4.60;;
1953;SDS011;977;42.704;23.354;2022-08-19T05:56:06;14.60;;;10.10;;
1953;SDS011;977;42.704;23.354;2022-08-19T05:58:34;12.30;;;8.00;;
1953;SDS011;977;42.704;23.354;2022-08-19T06:01:00;6.57;;;5.10;;
1953;SDS011;977;42.704;23.354;2022-08-19T06:03:33;6.33;;;5.73;;
1953;SDS011;977;42.704;23.354;2022-08-19T06:06:00;7.17;;;5.33;;
1953;SDS011;977;42.704;23.354;2022-08-19T06:08:27;5.27;;;4.77;;
1953;SDS011;977;42.704;23.354;2022-08-19T06:10:54;6.53;;;4.93;;
1953;SDS011;977;42.704;23.354;2022-08-19T06:13:21;5.33;;;4.80;;
1953;SDS011;977;42.704;23.354;2022-08-19T06:15:48;7.40;;;5.33;;
1953;SDS011;977;42.704;23.354;2022-08-19T06:18:14;5.90;;;5.40;;
1953;SDS011;977;42.704;23.354;2022-08-19T06:20:40;7.37;;;4.40;;
1953;SDS011;977;42.704;23.354;2022-08-19T06:23:06;9.63;;;5.50;;
1953;SDS011;977;42.704;23.354;2022-08-19T06:25:33;9.53;;;5.43;;
1953;SDS011;977;42.704;23.354;2022-08-19T06:27:58;5.93;;;5.43;;
1953;SDS011;977;42.704;23.354;2022-08-19T06:30:24;6.87;;;4.80;;
1953;SDS011;977;42.704;23.354;2022-08-19T06:32:50;9.70;;;7.60;;
1953;SDS011;977;42.704;23.354;2022-08-19T06:35:15;6.13;;;5.50;;
1953;SDS011;977;42.704;23.354;2022-08-19T06:37:41;12.00;;;4.60;;
1953;SDS011;977;42.704;23.354;2022-08-19T06:40:08;12.60;;;7.20;;
1953;SDS011;977;42.704;23.354;2022-08-19T06:42:35;7.10;;;6.40;;
1953;SDS011;977;42.704;23.354;2022-08-19T06:45:03;6.20;;;5.60;;
1953;SDS011;977;42.704;23.354;2022-08-19T06:47:30;5.90;;;5.20;;
1953;SDS011;977;42.704;23.354;2022-08-19T06:49:57;14.87;;;10.50;;
1953;SDS011;977;42.704;23.354;2022-08-19T06:52:34;6.60;;;5.90;;
1953;SDS011;977;42.704;23.354;2022-08-19T06:55:01;6.40;;;4.80;;
1953;SDS011;977;42.704;23.354;2022-08-19T06:57:27;6.83;;;6.13;;
1953;SDS011;977;42.704;23.354;2022-08-19T06:59:53;7.60;;;5.33;;
1953;SDS011;977;42.704;23.354;2022-08-19T07:02:20;8.57;;;4.77;;
1953;SDS011;977;42.704;23.354;2022-08-19T07:04:46;5.13;;;4.63;;
1953;SDS011;977;42.704;23.354;2022-08-19T07:07:13;10.70;;;4.23;;
1953;SDS011;977;42.704;23.354;2022-08-19T07:09:42;5.37;;;4.80;;
1953;SDS011;977;42.704;23.354;2022-08-19T07:12:10;6.07;;;4.80;;
1953;SDS011;977;42.704;23.354;2022-08-19T07:14:37;4.77;;;4.37;;
1953;SDS011;977;42.704;23.354;2022-08-19T07:17:04;4.80;;;4.40;;
1953;SDS011;977;42.704;23.354;2022-08-19T07:19:32;6.13;;;5.43;;
1953;SDS011;977;42.704;23.354;2022-08-19T07:22:00;4.60;;;4.17;;
1953;SDS011;977;42.704;23.354;2022-08-19T07:24:28;9.20;;;5.10;;
1953;SDS011;977;42.704;23.354;2022-08-19T07:26:55;4.70;;;4.23;;
1953;SDS011;977;42.704;23.354;2022-08-19T07:29:26;4.90;;;4.40;;
1953;SDS011;977;42.704;23.354;2022-08-19T07:31:53;5.77;;;4.50;;
1953;SDS011;977;42.704;23.354;2022-08-19T07:34:24;5.47;;;3.63;;
1953;SDS011;977;42.704;23.354;2022-08-19T07:36:51;9.80;;;4.13;;
1953;SDS011;977;42.704;23.354;2022-08-19T07:39:18;6.43;;;3.60;;
1953;SDS011;977;42.704;23.354;2022-08-19T07:41:49;4.50;;;4.10;;
1953;SDS011;977;42.704;23.354;2022-08-19T07:44:15;4.73;;;4.43;;
1953;SDS011;977;42.704;23.354;2022-08-19T07:46:43;4.47;;;4.17;;
1953;SDS011;977;42.704;23.354;2022-08-19T07:49:11;6.40;;;3.90;;
1953;SDS011;977;42.704;23.354;2022-08-19T07:51:42;4.20;;;3.40;;
1953;SDS011;977;42.704;23.354;2022-08-19T07:54:09;5.17;;;4.00;;
1953;SDS011;977;42.704;23.354;2022-08-19T07:56:36;4.80;;;4.20;;
1953;SDS011;977;42.704;23.354;2022-08-19T07:59:02;4.17;;;3.87;;
1953;SDS011;977;42.704;23.354;2022-08-19T08:01:28;3.80;;;3.50;;
1953;SDS011;977;42.704;23.354;2022-08-19T08:03:54;4.30;;;3.77;;
1953;SDS011;977;42.704;23.354;2022-08-19T08:06:40;5.50;;;4.60;;
1953;SDS011;977;42.704;23.354;2022-08-19T08:09:32;5.73;;;5.17;;
1953;SDS011;977;42.704;23.354;2022-08-19T08:12:05;4.23;;;3.90;;
1953;SDS011;977;42.704;23.354;2022-08-19T08:14:39;4.50;;;4.10;;
1953;SDS011;977;42.704;23.354;2022-08-19T08:17:11;9.43;;;8.33;;
1953;SDS011;977;42.704;23.354;2022-08-19T08:19:37;8.03;;;5.50;;
1953;SDS011;977;42.704;23.354;2022-08-19T08:22:06;11.20;;;7.53;;
1953;SDS011;977;42.704;23.354;2022-08-19T08:24:32;7.70;;;6.43;;
1953;SDS011;977;42.704;23.354;2022-08-19T08:27:01;3.87;;;3.50;;
1953;SDS011;977;42.704;23.354;2022-08-19T08:29:27;4.63;;;4.17;;
1953;SDS011;977;42.704;23.354;2022-08-19T08:31:54;4.30;;;3.90;;
1953;SDS011;977;42.704;23.354;2022-08-19T08:34:20;5.97;;;4.07;;
1953;SDS011;977;42.704;23.354;2022-08-19T08:36:46;4.30;;;3.90;;
1953;SDS011;977;42.704;23.354;2022-08-19T08:39:13;4.20;;;3.90;;
1953;SDS011;977;42.704;23.354;2022-08-19T08:41:44;4.67;;;4.00;;
1953;SDS011;977;42.704;23.354;2022-08-19T08:44:28;4.13;;;3.80;;
1953;SDS011;977;42.704;23.354;2022-08-19T08:47:09;4.13;;;3.33;;
1953;SDS011;977;42.704;23.354;2022-08-19T08:52:28;4.70;;;4.10;;
1953;SDS011;977;42.704;23.354;2022-08-19T08:55:07;6.37;;;3.67;;
1953;SDS011;977;42.704;23.354;2022-08-19T09:00:32;3.97;;;3.67;;
1953;SDS011;977;42.704;23.354;2022-08-19T09:03:02;4.53;;;3.40;;
1953;SDS011;977;42.704;23.354;2022-08-19T09:05:53;4.73;;;3.27;;
1953;SDS011;977;42.704;23.354;2022-08-19T09:08:38;6.50;;;3.87;;
1953;SDS011;977;42.704;23.354;2022-08-19T09:11:15;4.30;;;3.97;;
1953;SDS011;977;42.704;23.354;2022-08-19T09:14:08;4.20;;;3.90;;
1953;SDS011;977;42.704;23.354;2022-08-19T09:16:45;3.30;;;3.10;;
1953;SDS011;977;42.704;23.354;2022-08-19T09:19:10;3.50;;;3.20;;
1953;SDS011;977;42.704;23.354;2022-08-19T09:21:36;3.83;;;3.40;;
1953;SDS011;977;42.704;23.354;2022-08-19T09:24:06;3.60;;;3.30;;
1953;SDS011;977;42.704;23.354;2022-08-19T09:26:32;6.50;;;3.57;;
1953;SDS011;977;42.704;23.354;2022-08-19T09:29:01;4.53;;;2.90;;
1953;SDS011;977;42.704;23.354;2022-08-19T09:31:30;4.50;;;3.63;;
1953;SDS011;977;42.704;23.354;2022-08-19T09:33:57;3.40;;;3.10;;
1953;SDS011;977;42.704;23.354;2022-08-19T09:36:24;3.93;;;3.00;;
1953;SDS011;977;42.704;23.354;2022-08-19T09:38:54;2.77;;;2.57;;
1953;SDS011;977;42.704;23.354;2022-08-19T09:41:51;3.83;;;2.20;;
1953;SDS011;977;42.704;23.354;2022-08-19T09:44:42;2.43;;;2.23;;
1953;SDS011;977;42.704;23.354;2022-08-19T09:47:19;3.07;;;2.87;;
1953;SDS011;977;42.704;23.354;2022-08-19T09:49:47;2.63;;;2.43;;
1953;SDS011;977;42.704;23.354;2022-08-19T09:52:22;3.20;;;2.67;;
1953;SDS011;977;42.704;23.354;2022-08-19T09:54:57;2.67;;;2.37;;
1953;SDS011;977;42.704;23.354;2022-08-19T09:57:40;1.97;;;1.87;;
1953;SDS011;977;42.704;23.354;2022-08-19T10:03:20;2.20;;;2.10;;
1953;SDS011;977;42.704;23.354;2022-08-19T10:06:02;2.10;;;1.90;;
1953;SDS011;977;42.704;23.354;2022-08-19T10:11:25;2.47;;;2.27;;
1953;SDS011;977;42.704;23.354;2022-08-19T10:14:16;2.37;;;2.27;;
1953;SDS011;977;42.704;23.354;2022-08-19T10:16:57;2.70;;;2.50;;
1953;SDS011;977;42.704;23.354;2022-08-19T10:19:30;2.60;;;2.40;;
1953;SDS011;977;42.704;23.354;2022-08-19T10:22:23;2.60;;;2.40;;
1953;SDS011;977;42.704;23.354;2022-08-19T10:25:08;2.53;;;2.40;;
1953;SDS011;977;42.704;23.354;2022-08-19T10:27:37;2.90;;;2.40;;
1953;SDS011;977;42.704;23.354;2022-08-19T10:30:11;5.13;;;4.70;;
1953;SDS011;977;42.704;23.354;2022-08-19T10:32:38;3.13;;;2.93;;
1953;SDS011;977;42.704;23.354;2022-08-19T10:35:03;3.27;;;2.97;;
1953;SDS011;977;42.704;23.354;2022-08-19T10:37:33;3.13;;;2.93;;
1953;SDS011;977;42.704;23.354;2022-08-19T10:40:05;5.43;;;2.80;;
1953;SDS011;977;42.704;23.354;2022-08-19T10:42:41;8.30;;;2.80;;
1953;SDS011;977;42.704;23.354;2022-08-19T10:45:28;2.80;;;2.60;;
1953;SDS011;977;42.704;23.354;2022-08-19T10:48:09;3.40;;;2.93;;
1953;SDS011;977;42.704;23.354;2022-08-19T10:50:38;3.27;;;3.00;;
1953;SDS011;977;42.704;23.354;2022-08-19T10:53:37;2.70;;;2.57;;
1953;SDS011;977;42.704;23.354;2022-08-19T10:56:11;2.60;;;2.50;;
1953;SDS011;977;42.704;23.354;2022-08-19T10:58:56;2.80;;;2.60;;
1953;SDS011;977;42.704;23.354;2022-08-19T11:01:34;2.60;;;2.50;;
1953;SDS011;977;42.704;23.354;2022-08-19T11:04:01;3.40;;;2.90;;
1953;SDS011;977;42.704;23.354;2022-08-19T11:06:27;2.70;;;2.50;;
1953;SDS011;977;42.704;23.354;2022-08-19T11:09:02;3.10;;;2.77;;
1953;SDS011;977;42.704;23.354;2022-08-19T11:11:31;2.67;;;2.50;;
1953;SDS011;977;42.704;23.354;2022-08-19T11:14:09;3.30;;;3.10;;
1953;SDS011;977;42.704;23.354;2022-08-19T11:16:51;6.23;;;3.47;;
1953;SDS011;977;42.704;23.354;2022-08-19T11:19:50;2.97;;;2.77;;
1953;SDS011;977;42.704;23.354;2022-08-19T11:22:21;3.00;;;2.80;;
1953;SDS011;977;42.704;23.354;2022-08-19T11:24:49;3.00;;;2.30;;
1953;SDS011;977;42.704;23.354;2022-08-19T11:27:15;2.83;;;2.63;;
1953;SDS011;977;42.704;23.354;2022-08-19T11:29:43;5.90;;;2.87;;
1953;SDS011;977;42.704;23.354;2022-08-19T11:32:09;4.50;;;2.97;;
1953;SDS011;977;42.704;23.354;2022-08-19T11:34:38;4.40;;;3.40;;
1953;SDS011;977;42.704;23.354;2022-08-19T11:37:10;3.30;;;3.10;;
1953;SDS011;977;42.704;23.354;2022-08-19T11:39:44;3.63;;;2.87;;
1953;SDS011;977;42.704;23.354;2022-08-19T11:42:09;2.60;;;2.40;;
1953;SDS011;977;42.704;23.354;2022-08-19T11:44:53;2.40;;;2.30;;
1953;SDS011;977;42.704;23.354;2022-08-19T11:47:19;2.93;;;2.63;;
1953;SDS011;977;42.704;23.354;2022-08-19T11:49:48;3.10;;;2.77;;
1953;SDS011;977;42.704;23.354;2022-08-19T11:52:16;2.80;;;2.60;;
1953;SDS011;977;42.704;23.354;2022-08-19T11:54:45;3.63;;;3.33;;
1953;SDS011;977;42.704;23.354;2022-08-19T11:57:19;5.00;;;3.40;;
1953;SDS011;977;42.704;23.354;2022-08-19T11:59:49;3.70;;;3.40;;
1953;SDS011;977;42.704;23.354;2022-08-19T12:02:19;3.60;;;3.30;;
1953;SDS011;977;42.704;23.354;2022-08-19T12:04:48;3.27;;;2.97;;
1953;SDS011;977;42.704;23.354;2022-08-19T12:07:19;5.60;;;3.80;;
1953;SDS011;977;42.704;23.354;2022-08-19T12:09:55;4.17;;;3.77;;
1953;SDS011;977;42.704;23.354;2022-08-19T12:15:07;3.40;;;3.20;;
1953;SDS011;977;42.704;23.354;2022-08-19T12:21:37;4.33;;;3.00;;
1953;SDS011;977;42.704;23.354;2022-08-19T12:27:38;3.10;;;2.90;;
1953;SDS011;977;42.704;23.354;2022-08-19T12:30:05;2.93;;;2.73;;
1953;SDS011;977;42.704;23.354;2022-08-19T12:32:55;4.00;;;3.20;;
1953;SDS011;977;42.704;23.354;2022-08-19T12:35:27;5.73;;;3.50;;
1953;SDS011;977;42.704;23.354;2022-08-19T12:37:53;3.73;;;3.47;;
1953;SDS011;977;42.704;23.354;2022-08-19T12:40:22;3.47;;;3.27;;
1953;SDS011;977;42.704;23.354;2022-08-19T12:42:48;6.37;;;3.70;;
1953;SDS011;977;42.704;23.354;2022-08-19T12:45:19;3.80;;;3.50;;
1953;SDS011;977;42.704;23.354;2022-08-19T12:47:47;3.63;;;3.43;;
1953;SDS011;977;42.704;23.354;2022-08-19T12:50:29;3.80;;;3.50;;
1953;SDS011;977;42.704;23.354;2022-08-19T12:53:17;3.57;;;3.37;;
1953;SDS011;977;42.704;23.354;2022-08-19T12:56:03;4.00;;;3.57;;
1953;SDS011;977;42.704;23.354;2022-08-19T12:58:48;3.63;;;3.30;;
1953;SDS011;977;42.704;23.354;2022-08-19T13:01:17;3.80;;;3.60;;
1953;SDS011;977;42.704;23.354;2022-08-19T13:03:56;3.37;;;3.07;;
1953;SDS011;977;42.704;23.354;2022-08-19T13:08:54;3.53;;;3.33;;
1953;SDS011;977;42.704;23.354;2022-08-19T13:14:39;3.70;;;3.40;;
1953;SDS011;977;42.704;23.354;2022-08-19T13:17:10;3.27;;;3.07;;
1953;SDS011;977;42.704;23.354;2022-08-19T13:19:36;3.53;;;2.93;;
1953;SDS011;977;42.704;23.354;2022-08-19T13:22:05;2.57;;;2.37;;
1953;SDS011;977;42.704;23.354;2022-08-19T13:24:33;3.63;;;3.17;;
1953;SDS011;977;42.704;23.354;2022-08-19T13:26:59;3.20;;;3.00;;
1953;SDS011;977;42.704;23.354;2022-08-19T13:29:32;3.60;;;3.30;;
1953;SDS011;977;42.704;23.354;2022-08-19T13:32:28;3.23;;;3.00;;
1953;SDS011;977;42.704;23.354;2022-08-19T13:35:13;3.37;;;3.10;;
1953;SDS011;977;42.704;23.354;2022-08-19T13:37:43;3.53;;;3.23;;
1953;SDS011;977;42.704;23.354;2022-08-19T13:40:25;5.60;;;3.40;;
1953;SDS011;977;42.704;23.354;2022-08-19T13:43:05;5.30;;;2.80;;
1953;SDS011;977;42.704;23.354;2022-08-19T13:45:35;3.10;;;2.90;;
1953;SDS011;977;42.704;23.354;2022-08-19T13:48:05;3.20;;;3.00;;
1953;SDS011;977;42.704;23.354;2022-08-19T13:50:33;3.47;;;3.23;;
1953;SDS011;977;42.704;23.354;2022-08-19T13:53:03;3.53;;;3.23;;
1953;SDS011;977;42.704;23.354;2022-08-19T13:55:32;3.93;;;3.63;;
1953;SDS011;977;42.704;23.354;2022-08-19T13:58:05;5.63;;;3.40;;
1953;SDS011;977;42.704;23.354;2022-08-19T14:00:35;2.90;;;2.70;;
1953;SDS011;977;42.704;23.354;2022-08-19T14:03:04;5.93;;;3.60;;
1953;SDS011;977;42.704;23.354;2022-08-19T14:05:29;3.67;;;3.27;;
1953;SDS011;977;42.704;23.354;2022-08-19T14:07:56;10.17;;;4.23;;
1953;SDS011;977;42.704;23.354;2022-08-19T14:10:22;4.10;;;3.80;;
1953;SDS011;977;42.704;23.354;2022-08-19T14:12:49;3.40;;;3.20;;
1953;SDS011;977;42.704;23.354;2022-08-19T14:15:17;3.03;;;2.83;;
1953;SDS011;977;42.704;23.354;2022-08-19T14:17:43;7.53;;;4.00;;
1953;SDS011;977;42.704;23.354;2022-08-19T14:20:13;3.50;;;3.27;;
1953;SDS011;977;42.704;23.354;2022-08-19T14:22:40;3.60;;;3.30;;
1953;SDS011;977;42.704;23.354;2022-08-19T14:25:16;3.57;;;3.37;;
1953;SDS011;977;42.704;23.354;2022-08-19T14:27:46;3.57;;;3.27;;
1953;SDS011;977;42.704;23.354;2022-08-19T14:30:20;4.40;;;4.00;;
1953;SDS011;977;42.704;23.354;2022-08-19T14:32:57;4.37;;;3.47;;
1953;SDS011;977;42.704;23.354;2022-08-19T14:35:27;3.60;;;3.30;;
1953;SDS011;977;42.704;23.354;2022-08-19T14:37:59;4.00;;;3.20;;
1953;SDS011;977;42.704;23.354;2022-08-19T14:40:27;4.63;;;4.23;;
1953;SDS011;977;42.704;23.354;2022-08-19T14:42:58;7.90;;;4.13;;
1953;SDS011;977;42.704;23.354;2022-08-19T14:45:41;4.43;;;4.00;;
1953;SDS011;977;42.704;23.354;2022-08-19T14:48:08;4.10;;;3.80;;
1953;SDS011;977;42.704;23.354;2022-08-19T14:50:49;4.23;;;3.60;;
1953;SDS011;977;42.704;23.354;2022-08-19T14:53:15;3.57;;;3.37;;
1953;SDS011;977;42.704;23.354;2022-08-19T14:55:45;3.63;;;3.30;;
1953;SDS011;977;42.704;23.354;2022-08-19T14:58:11;3.07;;;2.87;;
1953;SDS011;977;42.704;23.354;2022-08-19T15:00:40;4.00;;;3.17;;
1953;SDS011;977;42.704;23.354;2022-08-19T15:03:06;4.00;;;3.20;;
1953;SDS011;977;42.704;23.354;2022-08-19T15:05:31;3.53;;;3.23;;
1953;SDS011;977;42.704;23.354;2022-08-19T15:08:02;4.40;;;4.00;;
1953;SDS011;977;42.704;23.354;2022-08-19T15:10:28;4.10;;;3.80;;
1953;SDS011;977;42.704;23.354;2022-08-19T15:12:54;7.50;;;5.20;;
1953;SDS011;977;42.704;23.354;2022-08-19T15:15:19;3.20;;;3.00;;
1953;SDS011;977;42.704;23.354;2022-08-19T15:17:46;3.53;;;3.30;;
1953;SDS011;977;42.704;23.354;2022-08-19T15:20:13;3.53;;;3.23;;
1953;SDS011;977;42.704;23.354;2022-08-19T15:22:44;4.10;;;3.70;;
1953;SDS011;977;42.704;23.354;2022-08-19T15:25:10;2.90;;;2.80;;
1953;SDS011;977;42.704;23.354;2022-08-19T15:27:40;4.97;;;3.80;;
1953;SDS011;977;42.704;23.354;2022-08-19T15:30:09;3.70;;;3.30;;
1953;SDS011;977;42.704;23.354;2022-08-19T15:32:48;3.20;;;3.00;;
1953;SDS011;977;42.704;23.354;2022-08-19T15:35:20;6.33;;;3.40;;
1953;SDS011;977;42.704;23.354;2022-08-19T15:37:53;3.90;;;3.60;;
1953;SDS011;977;42.704;23.354;2022-08-19T15:43:49;3.73;;;3.43;;
1953;SDS011;977;42.704;23.354;2022-08-19T15:46:35;4.70;;;3.20;;
1953;SDS011;977;42.704;23.354;2022-08-19T15:49:19;9.50;;;2.90;;
1953;SDS011;977;42.704;23.354;2022-08-19T15:55:47;3.80;;;2.43;;
1953;SDS011;977;42.704;23.354;2022-08-19T15:58:16;3.10;;;2.90;;
1953;SDS011;977;42.704;23.354;2022-08-19T16:04:07;3.13;;;2.93;;
1953;SDS011;977;42.704;23.354;2022-08-19T16:07:05;3.27;;;3.03;;
1953;SDS011;977;42.704;23.354;2022-08-19T16:09:32;3.70;;;3.40;;
1953;SDS011;977;42.704;23.354;2022-08-19T16:11:59;4.10;;;3.00;;